createdAt,value
2022-09-21T00:00:06.344Z,9.40
2022-09-21T00:02:38.748Z,9.30
2022-09-21T00:05:12.514Z,9.30
2022-09-21T00:07:47.616Z,9.30
2022-09-21T00:10:19.119Z,9.20
2022-09-21T00:12:50.027Z,9.20
2022-09-21T00:15:23.043Z,9.20
2022-09-21T00:17:59.464Z,9.10
2022-09-21T00:20:35.415Z,9.10
2022-09-21T00:23:08.144Z,9.00
2022-09-21T00:25:38.506Z,9.00
2022-09-21T00:28:16.244Z,9.00
2022-09-21T00:30:59.312Z,9.00
2022-09-21T00:33:29.452Z,9.00
2022-09-21T00:36:06.623Z,9.00
2022-09-21T00:38:40.634Z,9.00
2022-09-21T00:41:13.237Z,9.00
2022-09-21T00:43:49.786Z,9.00
2022-09-21T00:46:30.334Z,9.00
2022-09-21T00:49:04.077Z,9.10
2022-09-21T00:51:34.491Z,9.00
2022-09-21T00:54:24.411Z,8.90
2022-09-21T00:56:54.650Z,8.90
2022-09-21T00:59:30.101Z,8.90
2022-09-21T01:02:02.726Z,8.90
2022-09-21T01:04:34.417Z,8.90
2022-09-21T01:07:18.724Z,8.80
2022-09-21T01:09:59.123Z,8.70
2022-09-21T01:13:07.511Z,8.60
2022-09-21T01:15:57.250Z,8.60
2022-09-21T01:18:38.851Z,8.60
2022-09-21T01:21:26.519Z,8.50
2022-09-21T01:24:34.133Z,8.50
2022-09-21T01:27:51.610Z,8.60
2022-09-21T01:30:30.766Z,8.50
2022-09-21T01:33:19.519Z,8.50
2022-09-21T01:35:56.001Z,8.50
2022-09-21T01:38:34.023Z,8.40
2022-09-21T01:41:08.464Z,8.40
2022-09-21T01:43:45.231Z,8.40
2022-09-21T01:46:24.535Z,8.40
2022-09-21T01:49:01.227Z,8.40
2022-09-21T01:51:32.337Z,8.40
2022-09-21T01:54:12.910Z,8.30
2022-09-21T01:56:52.137Z,8.30
2022-09-21T01:59:30.831Z,8.30
2022-09-21T02:02:12.183Z,8.30
2022-09-21T02:04:42.492Z,8.30
2022-09-21T02:07:13.442Z,8.30
2022-09-21T02:09:48.798Z,8.30
2022-09-21T02:12:19.432Z,8.30
2022-09-21T02:14:55.545Z,8.30
2022-09-21T02:17:43.200Z,8.20
2022-09-21T02:20:23.270Z,8.20
2022-09-21T02:23:09.308Z,8.20
2022-09-21T02:25:52.617Z,8.30
2022-09-21T02:28:40.831Z,8.30
2022-09-21T02:31:19.424Z,8.30
2022-09-21T02:34:11.347Z,8.30
2022-09-21T02:36:50.010Z,8.30
2022-09-21T02:39:38.387Z,8.30
2022-09-21T02:42:15.134Z,8.20
2022-09-21T02:44:57.180Z,8.30
2022-09-21T02:47:37.496Z,8.30
2022-09-21T02:50:18.248Z,8.30
2022-09-21T02:52:48.532Z,8.20
2022-09-21T02:55:21.139Z,8.20
2022-09-21T02:57:52.936Z,8.10
2022-09-21T03:00:23.954Z,8.00
2022-09-21T03:02:54.036Z,8.00
2022-09-21T03:05:32.650Z,8.00
2022-09-21T03:08:06.756Z,8.00
2022-09-21T03:10:40.393Z,7.90
2022-09-21T03:13:11.483Z,7.80
2022-09-21T03:15:43.842Z,7.80
2022-09-21T03:18:21.963Z,7.70
2022-09-21T03:20:55.298Z,7.70
2022-09-21T03:23:26.026Z,7.70
2022-09-21T03:25:56.416Z,7.70
2022-09-21T03:28:26.712Z,7.70
2022-09-21T03:30:57.078Z,7.70
2022-09-21T03:33:27.910Z,7.80
2022-09-21T03:36:00.664Z,7.70
2022-09-21T03:38:30.704Z,7.70
2022-09-21T03:41:03.410Z,7.60
2022-09-21T03:43:33.878Z,7.50
2022-09-21T03:46:13.035Z,7.50
2022-09-21T03:48:47.499Z,7.50
2022-09-21T03:51:23.907Z,7.30
2022-09-21T03:53:56.735Z,7.30
2022-09-21T03:56:39.463Z,7.30
2022-09-21T03:59:13.870Z,7.20
2022-09-21T04:01:44.399Z,7.20
2022-09-21T04:04:14.578Z,7.20
2022-09-21T04:06:49.445Z,7.20
2022-09-21T04:09:19.473Z,7.30
2022-09-21T04:11:54.153Z,7.30
2022-09-21T04:14:24.999Z,7.20
2022-09-21T04:16:55.084Z,7.20
2022-09-21T04:19:25.198Z,7.20
2022-09-21T04:22:00.192Z,7.20
2022-09-21T04:24:31.338Z,7.20
2022-09-21T04:27:01.493Z,7.10
2022-09-21T04:29:31.594Z,7.10
2022-09-21T04:32:10.340Z,7.10
2022-09-21T04:34:41.190Z,7.00
2022-09-21T04:37:16.462Z,7.00
2022-09-21T04:39:49.669Z,7.00
2022-09-21T04:42:19.786Z,7.00
2022-09-21T04:44:49.835Z,6.90
2022-09-21T04:47:23.455Z,6.90
2022-09-21T04:49:56.556Z,6.90
2022-09-21T04:52:29.361Z,6.90
2022-09-21T04:54:59.411Z,6.80
2022-09-21T04:57:29.556Z,6.80
2022-09-21T04:59:59.623Z,6.80
2022-09-21T05:02:29.779Z,6.90
2022-09-21T05:04:59.815Z,6.90
2022-09-21T05:07:35.154Z,6.90
2022-09-21T05:10:08.276Z,6.90
2022-09-21T05:12:41.065Z,6.90
2022-09-21T05:15:13.421Z,6.90
2022-09-21T05:17:47.161Z,6.90
2022-09-21T05:20:17.260Z,7.00
2022-09-21T05:22:49.954Z,7.00
2022-09-21T05:25:20.245Z,6.90
2022-09-21T05:27:50.400Z,7.00
2022-09-21T05:30:22.219Z,7.00
2022-09-21T05:33:04.365Z,7.10
2022-09-21T05:35:46.319Z,7.10
2022-09-21T05:38:23.238Z,7.10
2022-09-21T05:40:57.325Z,7.10
2022-09-21T05:43:34.262Z,7.10
2022-09-21T05:46:15.146Z,7.00
2022-09-21T05:48:57.884Z,7.00
2022-09-21T05:51:40.170Z,7.10
2022-09-21T05:54:24.947Z,7.10
2022-09-21T05:57:16.510Z,7.10
2022-09-21T06:00:04.311Z,7.10
2022-09-21T06:03:19.843Z,7.10
2022-09-21T06:05:49.891Z,7.20
2022-09-21T06:08:22.395Z,7.20
2022-09-21T06:10:58.083Z,7.20
2022-09-21T06:13:35.742Z,7.50
2022-09-21T06:16:06.323Z,7.60
2022-09-21T06:18:42.410Z,7.70
2022-09-21T06:21:13.100Z,7.80
2022-09-21T06:23:43.171Z,7.90
2022-09-21T06:26:15.791Z,8.00
2022-09-21T06:28:48.643Z,8.00
2022-09-21T06:31:18.752Z,8.00
2022-09-21T06:33:48.949Z,8.10
2022-09-21T06:36:19.877Z,8.10
2022-09-21T06:38:49.979Z,8.10
2022-09-21T06:41:22.676Z,8.20
2022-09-21T06:44:05.407Z,8.40
2022-09-21T06:46:38.697Z,8.70
2022-09-21T06:49:08.841Z,8.90
2022-09-21T06:51:39.108Z,8.90
2022-09-21T06:54:12.268Z,9.00
2022-09-21T06:56:51.122Z,9.20
2022-09-21T06:59:21.164Z,9.30
2022-09-21T07:01:51.433Z,9.50
2022-09-21T07:04:25.502Z,9.70
2022-09-21T07:06:55.744Z,9.90
2022-09-21T07:12:18.602Z,10.30
2022-09-21T07:14:57.321Z,10.30
2022-09-21T07:17:35.181Z,10.30
2022-09-21T07:20:08.563Z,10.30
2022-09-21T07:22:39.828Z,10.60
2022-09-21T07:25:10.734Z,10.90
2022-09-21T07:27:44.292Z,12.40
2022-09-21T07:30:20.014Z,15.10
2022-09-21T07:32:50.079Z,17.20
2022-09-21T07:35:20.296Z,19.50
2022-09-21T07:37:50.400Z,20.40
2022-09-21T07:40:32.883Z,21.00
2022-09-21T07:43:16.013Z,22.20
2022-09-21T07:45:56.739Z,22.60
2022-09-21T07:48:27.522Z,23.00
2022-09-21T07:51:06.882Z,23.50
2022-09-21T07:53:37.769Z,23.10
2022-09-21T07:56:17.209Z,23.80
2022-09-21T07:59:04.597Z,23.90
2022-09-21T08:01:36.269Z,24.50
2022-09-21T08:04:10.319Z,24.90
2022-09-21T08:06:43.478Z,25.20
2022-09-21T08:09:13.523Z,24.50
2022-09-21T08:11:46.454Z,25.00
2022-09-21T08:14:26.582Z,25.90
2022-09-21T08:16:59.627Z,25.40
2022-09-21T08:19:29.813Z,25.80
2022-09-21T08:22:02.732Z,25.30
2022-09-21T08:24:33.161Z,25.90
2022-09-21T08:27:08.576Z,26.10
2022-09-21T08:29:43.209Z,25.20
2022-09-21T08:32:39.362Z,24.80
2022-09-21T08:35:06.677Z,25.30
2022-09-21T08:37:38.347Z,25.30
2022-09-21T08:40:17.333Z,25.30
2022-09-21T08:43:02.951Z,25.10
2022-09-21T08:45:43.568Z,24.00
2022-09-21T08:48:36.465Z,24.10
2022-09-21T08:51:14.135Z,23.50
2022-09-21T08:53:53.157Z,23.30
2022-09-21T08:56:41.918Z,22.80
2022-09-21T08:59:19.384Z,24.10
2022-09-21T09:02:06.677Z,25.30
2022-09-21T09:04:58.757Z,25.70
2022-09-21T09:07:53.961Z,26.40
2022-09-21T09:10:40.068Z,26.10
2022-09-21T09:13:39.611Z,26.50
2022-09-21T09:16:24.323Z,25.70
2022-09-21T09:19:08.375Z,25.20
2022-09-21T09:21:44.384Z,24.80
2022-09-21T09:24:22.443Z,24.70
2022-09-21T09:26:59.593Z,25.00
2022-09-21T09:29:39.951Z,25.20
2022-09-21T09:32:19.507Z,25.10
2022-09-21T09:35:03.041Z,25.20
2022-09-21T09:37:46.529Z,26.40
2022-09-21T09:40:23.298Z,26.20
2022-09-21T09:43:05.277Z,25.30
2022-09-21T09:45:51.921Z,25.50
2022-09-21T09:48:42.768Z,25.80
2022-09-21T09:51:16.654Z,26.30
2022-09-21T09:53:46.796Z,27.20
2022-09-21T09:56:19.897Z,27.40
2022-09-21T09:59:00.003Z,28.10
2022-09-21T10:01:49.072Z,26.90
2022-09-21T10:04:21.135Z,25.50
2022-09-21T10:06:53.842Z,25.30
2022-09-21T10:09:32.470Z,25.80
2022-09-21T10:12:10.483Z,27.30
2022-09-21T10:14:41.129Z,27.00
2022-09-21T10:17:15.583Z,26.80
2022-09-21T10:19:46.560Z,26.00
2022-09-21T10:22:25.295Z,26.50
2022-09-21T10:24:59.378Z,26.50
2022-09-21T10:27:39.188Z,24.60
2022-09-21T10:30:41.460Z,23.00
2022-09-21T10:33:23.539Z,22.00
2022-09-21T10:35:57.003Z,22.00
2022-09-21T10:38:31.041Z,21.70
2022-09-21T10:41:03.434Z,20.70
2022-09-21T10:43:44.656Z,20.30
2022-09-21T10:46:20.153Z,19.90
2022-09-21T10:48:50.576Z,19.40
2022-09-21T10:51:34.030Z,19.00
2022-09-21T10:54:04.576Z,18.60
2022-09-21T10:56:34.667Z,18.90
2022-09-21T10:59:22.474Z,19.10
2022-09-21T11:02:00.737Z,19.40
2022-09-21T11:04:41.565Z,19.50
2022-09-21T11:07:23.130Z,19.80
2022-09-21T11:10:01.590Z,20.30
2022-09-21T11:12:55.263Z,21.60
2022-09-21T11:15:46.398Z,22.00
2022-09-21T11:18:28.293Z,21.40
2022-09-21T11:21:08.557Z,20.80
2022-09-21T11:23:55.010Z,21.60
2022-09-21T11:26:32.126Z,21.20
2022-09-21T11:29:18.348Z,21.50
2022-09-21T11:32:14.384Z,20.80
2022-09-21T11:35:27.063Z,20.70
2022-09-21T11:38:21.131Z,20.40
2022-09-21T11:41:16.827Z,19.60
2022-09-21T11:44:10.430Z,19.20
2022-09-21T11:46:54.843Z,19.10
2022-09-21T11:50:03.025Z,19.10
2022-09-21T11:53:09.319Z,19.20
2022-09-21T11:56:15.764Z,18.80
2022-09-21T11:59:00.060Z,18.80
2022-09-21T12:02:08.250Z,18.90
2022-09-21T12:04:55.958Z,18.90
2022-09-21T12:07:51.315Z,19.00
2022-09-21T12:10:41.838Z,19.50
2022-09-21T12:13:26.209Z,19.80
2022-09-21T12:16:16.168Z,20.30
2022-09-21T12:19:01.941Z,19.90
2022-09-21T12:21:39.611Z,19.90
2022-09-21T12:24:22.028Z,20.00
2022-09-21T12:27:00.654Z,20.10
2022-09-21T12:29:38.211Z,19.90
2022-09-21T12:32:20.271Z,20.00
2022-09-21T12:34:58.288Z,20.10
2022-09-21T12:37:34.828Z,20.30
2022-09-21T12:40:22.479Z,20.50
2022-09-21T12:43:19.090Z,20.70
2022-09-21T12:46:02.266Z,20.70
2022-09-21T12:48:38.260Z,20.80
2022-09-21T12:51:16.856Z,20.70
2022-09-21T12:53:51.230Z,20.60
2022-09-21T12:56:37.578Z,20.40
2022-09-21T12:59:28.880Z,20.60
2022-09-21T13:02:20.855Z,20.50
2022-09-21T13:05:07.463Z,19.80
2022-09-21T13:08:06.672Z,19.40
2022-09-21T13:10:51.783Z,19.10
2022-09-21T13:13:34.138Z,18.60
2022-09-21T13:16:09.621Z,18.30
2022-09-21T13:18:49.407Z,18.30
2022-09-21T13:21:26.817Z,18.60
2022-09-21T13:24:01.416Z,18.80
2022-09-21T13:26:38.541Z,18.90
2022-09-21T13:29:34.761Z,19.20
2022-09-21T13:32:27.367Z,19.70
2022-09-21T13:35:47.903Z,20.00
2022-09-21T13:38:31.031Z,20.10
2022-09-21T13:41:04.034Z,20.00
2022-09-21T13:43:58.622Z,19.90
2022-09-21T13:46:59.939Z,19.30
2022-09-21T13:50:01.257Z,18.90
2022-09-21T13:52:42.035Z,18.70
2022-09-21T13:55:31.036Z,18.60
2022-09-21T13:58:07.363Z,18.60
2022-09-21T14:00:45.073Z,18.50
2022-09-21T14:03:39.003Z,18.60
2022-09-21T14:06:17.337Z,18.50
2022-09-21T14:08:58.124Z,18.50
2022-09-21T14:11:38.126Z,18.50
2022-09-21T14:14:24.755Z,18.40
2022-09-21T14:16:58.972Z,18.70
2022-09-21T14:20:07.825Z,18.90
2022-09-21T14:22:47.124Z,19.00
2022-09-21T14:25:53.413Z,19.30
2022-09-21T14:28:51.295Z,19.40
2022-09-21T14:31:29.183Z,19.50
2022-09-21T14:34:05.480Z,19.50
2022-09-21T14:36:45.783Z,19.60
2022-09-21T14:39:26.363Z,19.50
2022-09-21T14:42:01.280Z,19.70
2022-09-21T14:44:35.351Z,19.80
2022-09-21T14:48:01.724Z,19.60
2022-09-21T14:50:38.823Z,19.50
2022-09-21T14:53:41.922Z,19.50
2022-09-21T14:56:45.857Z,19.50
2022-09-21T14:59:41.215Z,19.30
2022-09-21T15:02:24.252Z,19.30
2022-09-21T15:05:23.220Z,19.30
2022-09-21T15:08:43.362Z,19.40
2022-09-21T15:11:27.136Z,19.40
2022-09-21T15:14:31.658Z,19.00
2022-09-21T15:17:25.164Z,18.90
2022-09-21T15:20:00.861Z,19.10
2022-09-21T15:22:32.108Z,19.20
2022-09-21T15:25:07.074Z,19.40
2022-09-21T15:27:40.307Z,19.30
2022-09-21T15:30:25.930Z,19.20
2022-09-21T15:32:59.262Z,19.10
2022-09-21T15:35:32.630Z,19.00
2022-09-21T15:38:06.890Z,18.90
2022-09-21T15:40:50.494Z,19.00
2022-09-21T15:43:30.384Z,19.10
2022-09-21T15:46:10.727Z,19.00
2022-09-21T15:48:46.215Z,18.70
2022-09-21T15:51:27.185Z,18.80
2022-09-21T15:54:07.566Z,18.80
2022-09-21T15:56:40.590Z,18.70
2022-09-21T15:59:23.023Z,18.60
2022-09-21T16:02:19.093Z,18.50
2022-09-21T16:04:52.565Z,18.40
2022-09-21T16:07:34.379Z,18.30
2022-09-21T16:10:05.966Z,18.20
2022-09-21T16:12:47.007Z,18.10
2022-09-21T16:15:26.283Z,18.00
2022-09-21T16:18:04.795Z,18.00
2022-09-21T16:20:50.709Z,18.00
2022-09-21T16:23:29.104Z,17.90
2022-09-21T16:26:03.530Z,17.80
2022-09-21T16:28:43.191Z,17.70
2022-09-21T16:31:36.623Z,17.60
2022-09-21T16:34:39.429Z,17.50
2022-09-21T16:37:31.197Z,17.40
2022-09-21T16:40:04.888Z,17.50
2022-09-21T16:42:36.674Z,17.40
2022-09-21T16:45:31.815Z,17.30
2022-09-21T16:48:05.147Z,17.30
2022-09-21T16:50:38.167Z,17.20
2022-09-21T16:53:08.249Z,17.10
2022-09-21T16:55:38.412Z,16.90
2022-09-21T16:58:08.486Z,16.80
2022-09-21T17:00:44.331Z,16.80
2022-09-21T17:03:15.443Z,16.80
2022-09-21T17:05:56.475Z,16.70
2022-09-21T17:08:27.598Z,16.60
2022-09-21T17:10:58.014Z,16.50
2022-09-21T17:13:30.508Z,16.30
2022-09-21T17:16:01.224Z,16.20
2022-09-21T17:18:35.805Z,16.20
2022-09-21T17:21:10.998Z,16.20
2022-09-21T17:23:42.041Z,16.00
2022-09-21T17:26:19.348Z,16.00
2022-09-21T17:28:53.024Z,15.80
2022-09-21T17:31:28.255Z,15.70
2022-09-21T17:33:58.425Z,15.60
2022-09-21T17:36:31.053Z,15.50
2022-09-21T17:39:01.484Z,15.40
2022-09-21T17:41:44.058Z,15.40
2022-09-21T17:44:22.160Z,15.30
2022-09-21T17:47:00.499Z,15.20
2022-09-21T17:49:31.656Z,15.20
2022-09-21T17:52:17.715Z,15.10
2022-09-21T17:54:49.003Z,15.00
2022-09-21T17:57:49.741Z,14.90
2022-09-21T18:00:25.637Z,14.80
2022-09-21T18:03:02.876Z,14.70
2022-09-21T18:05:43.538Z,14.60
2022-09-21T18:08:17.151Z,14.50
2022-09-21T18:10:59.840Z,14.40
2022-09-21T18:13:44.418Z,14.40
2022-09-21T18:16:37.315Z,14.30
2022-09-21T18:19:38.872Z,14.30
2022-09-21T18:22:36.257Z,14.10
2022-09-21T18:25:18.469Z,13.90
2022-09-21T18:27:52.223Z,13.70
2022-09-21T18:30:23.382Z,13.50
2022-09-21T18:33:16.151Z,13.40
2022-09-21T18:36:03.232Z,13.30
2022-09-21T18:38:44.281Z,13.20
2022-09-21T18:41:37.640Z,13.10
2022-09-21T18:44:20.719Z,13.00
2022-09-21T18:47:06.294Z,12.90
2022-09-21T18:50:02.795Z,12.70
2022-09-21T18:52:53.313Z,12.60
2022-09-21T18:55:31.201Z,12.50
2022-09-21T18:58:05.007Z,12.50
2022-09-21T19:00:36.307Z,12.50
2022-09-21T19:03:22.822Z,12.50
2022-09-21T19:06:17.925Z,12.30
2022-09-21T19:09:05.482Z,12.20
2022-09-21T19:11:45.875Z,12.20
2022-09-21T19:14:32.652Z,12.10
2022-09-21T19:17:19.255Z,12.00
2022-09-21T19:20:08.578Z,11.90
2022-09-21T19:22:52.233Z,11.90
2022-09-21T19:25:34.374Z,11.80
2022-09-21T19:28:17.382Z,11.80
2022-09-21T19:31:02.118Z,11.80
2022-09-21T19:33:51.661Z,11.70
2022-09-21T19:36:25.815Z,11.60
2022-09-21T19:38:56.916Z,11.60
2022-09-21T19:41:43.375Z,11.60
2022-09-21T19:44:50.779Z,11.70
2022-09-21T19:47:35.387Z,11.60
2022-09-21T19:50:19.882Z,11.60
2022-09-21T19:53:14.394Z,11.50
2022-09-21T19:56:00.530Z,11.50
2022-09-21T19:58:43.992Z,11.50
2022-09-21T20:01:21.711Z,11.40
2022-09-21T20:03:54.887Z,11.40
2022-09-21T20:06:34.275Z,11.30
2022-09-21T20:09:18.987Z,11.20
2022-09-21T20:12:14.731Z,11.20
2022-09-21T20:14:53.959Z,11.20
2022-09-21T20:17:38.911Z,11.10
2022-09-21T20:20:22.092Z,11.10
2022-09-21T20:22:53.016Z,11.00
2022-09-21T20:25:28.820Z,10.90
2022-09-21T20:28:03.904Z,10.90
2022-09-21T20:30:50.939Z,10.80
2022-09-21T20:33:24.161Z,10.80
2022-09-21T20:35:56.970Z,10.70
2022-09-21T20:38:37.282Z,10.60
2022-09-21T20:41:15.509Z,10.60
2022-09-21T20:43:48.672Z,10.40
2022-09-21T20:46:18.930Z,10.30
2022-09-21T20:48:52.953Z,10.30
2022-09-21T20:51:28.277Z,10.30
2022-09-21T20:53:58.484Z,10.50
2022-09-21T20:56:28.644Z,10.50
2022-09-21T20:59:01.296Z,10.50
2022-09-21T21:01:31.455Z,10.50
2022-09-21T21:04:03.690Z,10.40
2022-09-21T21:06:37.772Z,10.30
2022-09-21T21:09:10.308Z,10.30
2022-09-21T21:11:40.369Z,10.30
2022-09-21T21:14:10.795Z,10.30
2022-09-21T21:16:40.896Z,10.20
2022-09-21T21:19:14.051Z,10.10
2022-09-21T21:21:47.130Z,10.00
2022-09-21T21:24:29.675Z,10.00
2022-09-21T21:27:03.718Z,10.10
2022-09-21T21:29:35.196Z,10.10
2022-09-21T21:32:05.692Z,10.00
2022-09-21T21:34:35.922Z,10.00
2022-09-21T21:37:11.237Z,10.00
2022-09-21T21:39:41.391Z,9.90
2022-09-21T21:42:12.642Z,9.90
2022-09-21T21:44:43.289Z,9.80
2022-09-21T21:47:38.184Z,9.80
2022-09-21T21:50:10.327Z,9.90
2022-09-21T21:52:46.040Z,9.90
2022-09-21T21:55:23.740Z,9.90
2022-09-21T21:57:53.824Z,10.00
2022-09-21T22:00:26.693Z,10.10
2022-09-21T22:02:59.355Z,10.00
2022-09-21T22:05:29.519Z,10.00
2022-09-21T22:08:02.207Z,9.90
2022-09-21T22:10:32.310Z,9.90
2022-09-21T22:13:02.367Z,9.80
2022-09-21T22:15:32.459Z,9.80
2022-09-21T22:18:02.620Z,9.80
2022-09-21T22:20:33.628Z,9.80
2022-09-21T22:23:06.287Z,9.80
2022-09-21T22:25:39.377Z,9.70
2022-09-21T22:28:12.491Z,9.70
2022-09-21T22:30:50.108Z,9.60
2022-09-21T22:33:20.142Z,9.40
2022-09-21T22:35:50.259Z,9.40
2022-09-21T22:38:22.961Z,9.30
2022-09-21T22:40:53.087Z,9.30
2022-09-21T22:43:26.140Z,9.30
2022-09-21T22:45:57.318Z,9.30
2022-09-21T22:48:31.134Z,9.20
2022-09-21T22:51:01.703Z,9.20
2022-09-21T22:53:35.130Z,9.20
2022-09-21T22:58:55.707Z,9.10
2022-09-21T23:01:29.066Z,9.20
2022-09-21T23:04:01.566Z,9.20
2022-09-21T23:06:49.751Z,9.20
2022-09-21T23:11:56.849Z,9.10
2022-09-21T23:14:27.094Z,9.10
2022-09-21T23:17:03.266Z,9.00
2022-09-21T23:19:33.992Z,8.90
2022-09-21T23:22:04.217Z,8.80
2022-09-21T23:24:34.399Z,8.70
2022-09-21T23:27:12.324Z,8.70
2022-09-21T23:29:45.250Z,8.70
2022-09-21T23:32:15.381Z,8.60
2022-09-21T23:34:46.139Z,8.60
2022-09-21T23:37:16.387Z,8.60
2022-09-21T23:39:46.594Z,8.60
2022-09-21T23:42:19.838Z,8.60
2022-09-21T23:44:53.151Z,8.60
2022-09-21T23:47:25.707Z,8.40
2022-09-21T23:49:55.742Z,8.30
2022-09-21T23:52:28.664Z,8.30
2022-09-21T23:54:58.805Z,8.30
2022-09-21T23:57:33.885Z,8.30
